Time;durP1;ratioP1;P1;durP2;ratioP2;P2;SDS_P1;SDS_P2;PMS_P1;PMS_P2;Temp;Humidity;BMP_temperature;BMP_pressure;BME280_temperature;BME280_humidity;BME280_pressure;Samples;Min_cycle;Max_cycle;Signal;HPM_P1;HPM_P2
2022/10/20 00:01:05;;;;;;;;;;;16.60;97.90;;;;;;5037742;28;19909;-62
2022/10/20 00:03:31;;;;;;;;;;;16.50;97.90;;;;;;5039256;28;20210;-62
2022/10/20 00:06:07;;;;;;;;;;;16.60;97.80;;;;;;5038165;28;19978;-62
2022/10/20 00:08:33;;;;;;;;;;;16.60;97.80;;;;;;5039206;28;20244;-62
2022/10/20 00:10:59;;;;;;;;;;;16.60;97.80;;;;;;5038215;28;20323;-62
2022/10/20 00:13:24;;;;;;;;;;;16.50;97.70;;;;;;5037179;28;20322;-62
2022/10/20 00:15:54;;;;;;;;;;;16.50;97.60;;;;;;5035529;28;19908;-62
2022/10/20 00:18:20;;;;;;;;;;;16.60;97.60;;;;;;5036462;28;19909;-62
2022/10/20 00:20:46;;;;;;;;;;;16.50;97.50;;;;;;5036345;28;19905;-62
2022/10/20 00:23:11;;;;;;;;;;;16.50;97.40;;;;;;5036792;28;19999;-62
2022/10/20 00:25:37;;;;;;;;;;;16.50;97.40;;;;;;5036227;28;19909;-62
2022/10/20 00:28:02;;;;;;;;;;;16.50;97.30;;;;;;5037347;28;19909;-62
2022/10/20 00:30:28;;;;;;;;;;;16.50;97.30;;;;;;5037373;28;20007;-62
2022/10/20 00:32:53;;;;;;;;;;;16.50;97.30;;;;;;5037996;28;20092;-62
2022/10/20 00:35:19;;;;;;;;;;;16.50;97.30;;;;;;5038572;28;19913;-62
2022/10/20 00:37:45;;;;;;;;;;;16.50;97.30;;;;;;5039635;28;19908;-62
2022/10/20 00:40:11;;;;;;;;;;;16.50;97.20;;;;;;5046822;28;19916;-62
2022/10/20 00:42:37;;;;;;;;;;;16.50;97.20;;;;;;5038522;28;20209;-62
2022/10/20 00:45:03;;;;;;;;;;;16.50;97.20;;;;;;5038699;28;19909;-62
2022/10/20 00:47:35;;;;;;;;;;;16.50;97.10;;;;;;5037774;28;19917;-62
2022/10/20 00:50:04;;;;;;;;;;;16.40;97.10;;;;;;5038056;28;20402;-62
2022/10/20 00:52:30;;;;;;;;;;;16.50;97.00;;;;;;5038918;28;19909;-62
2022/10/20 00:54:55;;;;;;;;;;;16.50;97.00;;;;;;5037810;28;19920;-62
2022/10/20 00:57:21;;;;;;;;;;;16.50;97.00;;;;;;5036471;28;20259;-62
2022/10/20 00:59:47;;;;;;;;;;;16.50;97.00;;;;;;5037770;28;19936;-62
2022/10/20 01:02:13;;;;;;;;;;;16.50;97.00;;;;;;5036586;28;19913;-62
2022/10/20 01:04:38;;;;;;;;;;;16.50;96.90;;;;;;5037701;28;20298;-62
2022/10/20 01:07:04;;;;;;;;;;;16.40;96.80;;;;;;5038460;28;19909;-62
2022/10/20 01:09:30;;;;;;;;;;;16.50;96.90;;;;;;5038114;28;20255;-62
2022/10/20 01:12:01;;;;;;;;;;;16.40;96.80;;;;;;5038874;28;19920;-62
2022/10/20 01:14:30;;;;;;;;;;;16.50;96.80;;;;;;5037902;28;19908;-62
2022/10/20 01:17:05;;;;;;;;;;;16.40;96.70;;;;;;5037262;28;19909;-61
2022/10/20 01:19:49;;;;;;;;;;;16.40;96.70;;;;;;5037575;28;19955;-62
2022/10/20 01:22:18;;;;;;;;;;;16.40;96.60;;;;;;5037348;28;19921;-62
2022/10/20 01:24:49;;;;;;;;;;;16.40;96.60;;;;;;5036876;28;19915;-62
2022/10/20 01:27:20;;;;;;;;;;;16.40;96.60;;;;;;5035919;28;19909;-62
2022/10/20 01:30:06;;;;;;;;;;;16.40;96.60;;;;;;5035838;28;20005;-62
2022/10/20 01:32:40;;;;;;;;;;;16.40;96.60;;;;;;5033769;28;19924;-62
2022/10/20 01:35:12;;;;;;;;;;;16.40;96.50;;;;;;5031063;28;20162;-62
2022/10/20 01:37:45;;;;;;;;;;;16.40;96.40;;;;;;5033522;28;19909;-62
2022/10/20 01:40:21;;;;;;;;;;;16.40;96.40;;;;;;5033948;28;19917;-62
2022/10/20 01:42:49;;;;;;;;;;;16.40;96.30;;;;;;5035508;28;19912;-62
2022/10/20 01:45:17;;;;;;;;;;;16.40;96.20;;;;;;5035918;28;19943;-62
2022/10/20 01:47:44;;;;;;;;;;;16.40;96.20;;;;;;5035909;28;19917;-62
2022/10/20 01:50:11;;;;;;;;;;;16.40;96.20;;;;;;5036137;28;19919;-62
2022/10/20 01:52:36;;;;;;;;;;;16.30;96.20;;;;;;5035103;28;19909;-62
2022/10/20 01:55:09;;;;;;;;;;;16.30;96.20;;;;;;5035418;28;19932;-62
2022/10/20 01:57:35;;;;;;;;;;;16.40;96.20;;;;;;5034712;28;20286;-62
2022/10/20 02:00:05;;;;;;;;;;;16.40;96.20;;;;;;5035489;28;19959;-62
2022/10/20 02:02:49;;;;;;;;;;;16.40;96.20;;;;;;5036157;28;19942;-62
2022/10/20 02:05:24;;;;;;;;;;;16.30;96.10;;;;;;5036167;28;19952;-62
2022/10/20 02:07:50;;;;;;;;;;;16.40;96.10;;;;;;5037647;28;19908;-62
2022/10/20 02:10:16;;;;;;;;;;;16.30;96.00;;;;;;5038601;28;19916;-62
2022/10/20 02:12:43;;;;;;;;;;;16.30;96.00;;;;;;5037848;28;19909;-62
2022/10/20 02:15:11;;;;;;;;;;;16.30;96.00;;;;;;5037478;28;20214;-62
2022/10/20 02:17:37;;;;;;;;;;;16.30;96.00;;;;;;5037575;28;20342;-62
2022/10/20 02:20:04;;;;;;;;;;;16.30;95.90;;;;;;5036141;28;20091;-62
2022/10/20 02:22:30;;;;;;;;;;;16.30;95.90;;;;;;5036450;28;19944;-62
2022/10/20 02:24:57;;;;;;;;;;;16.30;95.90;;;;;;5036819;28;19967;-62
2022/10/20 02:27:28;;;;;;;;;;;16.30;95.90;;;;;;5037877;28;19909;-62
2022/10/20 02:29:56;;;;;;;;;;;16.30;95.90;;;;;;5037230;28;19916;-62
2022/10/20 02:32:23;;;;;;;;;;;16.30;95.90;;;;;;5037111;28;19920;-62
2022/10/20 02:34:48;;;;;;;;;;;16.30;95.90;;;;;;5037170;28;19908;-62
2022/10/20 02:37:14;;;;;;;;;;;16.30;95.90;;;;;;5041875;28;19916;-62
2022/10/20 02:39:40;;;;;;;;;;;16.30;95.90;;;;;;5041405;28;19916;-62
2022/10/20 02:42:05;;;;;;;;;;;16.30;96.00;;;;;;5041110;28;19923;-62
2022/10/20 02:44:31;;;;;;;;;;;16.30;95.90;;;;;;5041000;28;19916;-62
2022/10/20 02:46:56;;;;;;;;;;;16.30;95.90;;;;;;5041338;28;19909;-62
2022/10/20 02:49:23;;;;;;;;;;;16.30;95.90;;;;;;5041115;28;19916;-62
2022/10/20 02:51:49;;;;;;;;;;;16.20;95.90;;;;;;5041809;28;19981;-62
2022/10/20 02:54:15;;;;;;;;;;;16.20;95.90;;;;;;5041467;28;19999;-62
2022/10/20 02:56:41;;;;;;;;;;;16.20;95.90;;;;;;5041025;28;20236;-62
2022/10/20 02:59:11;;;;;;;;;;;16.20;96.00;;;;;;5040349;28;19920;-62
2022/10/20 03:01:36;;;;;;;;;;;16.10;96.00;;;;;;5041382;28;20163;-62
2022/10/20 03:04:02;;;;;;;;;;;16.10;96.00;;;;;;5040432;28;19913;-62
2022/10/20 03:06:27;;;;;;;;;;;16.30;95.80;;;;;;5040327;28;20011;-62
2022/10/20 03:08:53;;;;;;;;;;;16.60;94.60;;;;;;5039333;28;20283;-62
2022/10/20 03:11:18;;;;;;;;;;;17.20;93.10;;;;;;5057204;28;19909;-62
2022/10/20 03:13:44;;;;;;;;;;;17.60;91.50;;;;;;5039895;28;19913;-62
2022/10/20 03:16:10;;;;;;;;;;;18.00;90.20;;;;;;5038754;28;19936;-62
2022/10/20 03:18:35;;;;;;;;;;;18.30;87.80;;;;;;5039028;28;19909;-62
2022/10/20 03:21:01;;;;;;;;;;;18.50;85.50;;;;;;5039596;28;19909;-62
2022/10/20 03:23:26;;;;;;;;;;;18.70;84.10;;;;;;5038917;28;19977;-62
2022/10/20 03:25:52;;;;;;;;;;;18.80;83.20;;;;;;5037724;28;19909;-62
2022/10/20 03:28:18;;;;;;;;;;;18.80;82.60;;;;;;5038104;28;19909;-62
2022/10/20 03:30:45;;;;;;;;;;;18.80;82.50;;;;;;5038358;28;20059;-62
2022/10/20 03:33:10;;;;;;;;;;;18.80;82.50;;;;;;5038148;28;20341;-62
2022/10/20 03:35:36;;;;;;;;;;;18.80;82.80;;;;;;5035207;28;20049;-62
2022/10/20 03:38:02;;;;;;;;;;;18.70;83.20;;;;;;5036202;28;19908;-62
2022/10/20 03:40:27;;;;;;;;;;;18.60;83.60;;;;;;5036831;28;20015;-62
2022/10/20 03:42:53;;;;;;;;;;;18.50;84.20;;;;;;5054084;28;19936;-62
2022/10/20 03:45:18;;;;;;;;;;;18.40;85.00;;;;;;5037924;28;19909;-62
2022/10/20 03:47:44;;;;;;;;;;;18.30;85.70;;;;;;5037613;28;19951;-62
2022/10/20 03:50:09;;;;;;;;;;;18.20;86.50;;;;;;5038346;28;19968;-62
2022/10/20 03:52:35;;;;;;;;;;;18.10;87.40;;;;;;5039807;28;19981;-62
2022/10/20 03:55:01;;;;;;;;;;;18.10;88.20;;;;;;5039678;28;19920;-62
2022/10/20 03:57:26;;;;;;;;;;;18.00;89.10;;;;;;5038633;28;19908;-62
2022/10/20 03:59:52;;;;;;;;;;;17.90;89.80;;;;;;5038227;28;19909;-62
2022/10/20 04:02:38;;;;;;;;;;;17.80;90.10;;;;;;5037564;28;19912;-62
2022/10/20 04:05:04;;;;;;;;;;;17.70;90.30;;;;;;5038347;28;19909;-62
2022/10/20 04:07:30;;;;;;;;;;;17.60;90.70;;;;;;5038823;28;19909;-62
2022/10/20 04:09:55;;;;;;;;;;;17.50;90.80;;;;;;5038035;28;19991;-62
2022/10/20 04:12:22;;;;;;;;;;;17.50;91.10;;;;;;5037524;28;19912;-62
2022/10/20 04:14:48;;;;;;;;;;;17.40;91.30;;;;;;5038227;28;19920;-62
2022/10/20 04:17:13;;;;;;;;;;;17.40;91.50;;;;;;5036458;28;19990;-62
2022/10/20 04:19:39;;;;;;;;;;;17.30;91.80;;;;;;5035695;28;19970;-62
2022/10/20 04:22:04;;;;;;;;;;;17.20;91.90;;;;;;5034388;28;20011;-62
2022/10/20 04:24:30;;;;;;;;;;;17.20;92.10;;;;;;5034689;28;19909;-62
2022/10/20 04:26:56;;;;;;;;;;;17.10;92.30;;;;;;5034866;28;19909;-62
2022/10/20 04:29:22;;;;;;;;;;;17.00;92.50;;;;;;5035383;28;20270;-62
2022/10/20 04:31:48;;;;;;;;;;;17.00;92.70;;;;;;5036725;28;19917;-62
2022/10/20 04:34:13;;;;;;;;;;;17.00;92.80;;;;;;5036419;28;19913;-62
2022/10/20 04:36:39;;;;;;;;;;;16.90;93.00;;;;;;5035706;28;19913;-62
2022/10/20 04:39:05;;;;;;;;;;;16.80;93.10;;;;;;5035768;28;20335;-62
2022/10/20 04:41:31;;;;;;;;;;;16.80;93.30;;;;;;5035818;28;19916;-62
2022/10/20 04:43:56;;;;;;;;;;;16.80;93.40;;;;;;5034684;28;19974;-62
2022/10/20 04:46:23;;;;;;;;;;;16.70;93.50;;;;;;5015726;28;22163;-62
2022/10/20 04:48:48;;;;;;;;;;;16.80;93.60;;;;;;5032238;28;19948;-62
2022/10/20 04:51:15;;;;;;;;;;;16.70;93.60;;;;;;5031452;28;19999;-62
2022/10/20 04:53:41;;;;;;;;;;;16.70;93.60;;;;;;5034340;28;19913;-62
2022/10/20 04:56:07;;;;;;;;;;;16.70;93.60;;;;;;5034124;28;20069;-62
2022/10/20 04:58:33;;;;;;;;;;;16.70;93.60;;;;;;5033800;28;20015;-62
2022/10/20 05:01:00;;;;;;;;;;;16.80;93.60;;;;;;5034401;28;20016;-62
2022/10/20 05:03:25;;;;;;;;;;;16.80;93.70;;;;;;5035031;28;20198;-62
2022/10/20 05:05:51;;;;;;;;;;;16.80;93.60;;;;;;5033397;28;20271;-62
2022/10/20 05:08:16;;;;;;;;;;;16.90;93.70;;;;;;5031993;28;19963;-62
2022/10/20 05:10:42;;;;;;;;;;;17.00;93.30;;;;;;5033306;28;19909;-62
2022/10/20 05:13:08;;;;;;;;;;;17.00;93.00;;;;;;5028609;28;19909;-61
2022/10/20 05:15:33;;;;;;;;;;;17.10;92.70;;;;;;5028246;28;20743;-62
2022/10/20 05:17:59;;;;;;;;;;;17.20;92.40;;;;;;5026052;28;19909;-62
2022/10/20 05:20:27;;;;;;;;;;;17.30;92.10;;;;;;5028366;28;19909;-62
2022/10/20 05:22:52;;;;;;;;;;;17.40;91.80;;;;;;5028611;28;19913;-62
2022/10/20 05:25:18;;;;;;;;;;;17.50;91.40;;;;;;5027494;28;19920;-62
2022/10/20 05:27:44;;;;;;;;;;;17.50;91.30;;;;;;5027851;28;20023;-62
2022/10/20 05:30:10;;;;;;;;;;;17.50;91.30;;;;;;5030109;28;19912;-62
2022/10/20 05:32:35;;;;;;;;;;;17.50;91.20;;;;;;5030270;28;20429;-63
2022/10/20 05:35:01;;;;;;;;;;;17.50;91.20;;;;;;5031875;28;20345;-63
2022/10/20 05:37:26;;;;;;;;;;;17.50;91.10;;;;;;5031523;28;19909;-63
2022/10/20 05:39:52;;;;;;;;;;;17.50;91.10;;;;;;5029575;28;19920;-63
2022/10/20 05:42:17;;;;;;;;;;;17.50;91.20;;;;;;5027890;28;19913;-63
2022/10/20 05:44:43;;;;;;;;;;;17.50;91.20;;;;;;5029717;28;19978;-63
2022/10/20 05:47:09;;;;;;;;;;;17.50;91.20;;;;;;5028223;28;19905;-63
2022/10/20 05:49:34;;;;;;;;;;;17.50;91.30;;;;;;5028232;28;19952;-63
2022/10/20 05:52:00;;;;;;;;;;;17.40;91.50;;;;;;5028981;28;20281;-63
2022/10/20 05:54:25;;;;;;;;;;;17.40;91.60;;;;;;5028260;28;19908;-63
2022/10/20 05:56:51;;;;;;;;;;;17.30;91.70;;;;;;5026816;28;20263;-63
2022/10/20 05:59:17;;;;;;;;;;;17.30;91.90;;;;;;5024531;28;19908;-63
2022/10/20 06:01:48;;;;;;;;;;;17.20;92.00;;;;;;5027216;28;20328;-63
2022/10/20 06:04:15;;;;;;;;;;;17.20;92.30;;;;;;5027054;28;19924;-63
2022/10/20 06:06:42;;;;;;;;;;;17.10;92.50;;;;;;5029396;28;20357;-63
2022/10/20 06:09:08;;;;;;;;;;;17.10;92.80;;;;;;5028894;28;20092;-63
2022/10/20 06:11:34;;;;;;;;;;;17.10;93.00;;;;;;5032535;28;19909;-63
2022/10/20 06:14:00;;;;;;;;;;;17.00;93.10;;;;;;5034969;28;19991;-64
2022/10/20 06:16:26;;;;;;;;;;;17.00;93.30;;;;;;5035492;28;19909;-63
2022/10/20 06:18:52;;;;;;;;;;;17.00;93.40;;;;;;5032536;28;19919;-63
2022/10/20 06:21:18;;;;;;;;;;;17.00;93.50;;;;;;5032171;28;19909;-63
2022/10/20 06:23:44;;;;;;;;;;;17.00;93.70;;;;;;5029940;28;19959;-63
2022/10/20 06:26:11;;;;;;;;;;;16.90;93.70;;;;;;5029831;28;20148;-63
2022/10/20 06:28:37;;;;;;;;;;;16.90;93.80;;;;;;5031530;28;20309;-63
2022/10/20 06:31:22;;;;;;;;;;;16.90;93.90;;;;;;5032291;28;20030;-63
2022/10/20 06:33:48;;;;;;;;;;;16.90;94.00;;;;;;5030664;28;19952;-62
2022/10/20 06:36:14;;;;;;;;;;;16.90;94.00;;;;;;5032769;28;20009;-63
2022/10/20 06:38:41;;;;;;;;;;;16.90;94.20;;;;;;5033857;28;20153;-64
2022/10/20 06:41:08;;;;;;;;;;;16.90;94.20;;;;;;5032649;28;20096;-64
2022/10/20 06:43:33;;;;;;;;;;;16.90;94.40;;;;;;5031498;28;19913;-64
2022/10/20 06:46:00;;;;;;;;;;;16.90;94.40;;;;;;5033467;28;19909;-64
2022/10/20 06:48:28;;;;;;;;;;;16.90;94.50;;;;;;5033729;28;19920;-63
2022/10/20 06:50:57;;;;;;;;;;;16.90;94.70;;;;;;5033546;28;19909;-64
2022/10/20 06:53:24;;;;;;;;;;;16.80;94.80;;;;;;5032604;28;19916;-64
2022/10/20 06:56:02;;;;;;;;;;;16.80;94.90;;;;;;5034041;28;19958;-64
2022/10/20 06:58:28;;;;;;;;;;;16.80;94.90;;;;;;5036241;28;19909;-64
2022/10/20 07:01:00;;;;;;;;;;;16.80;95.00;;;;;;5033905;28;19979;-63
2022/10/20 07:03:27;;;;;;;;;;;16.80;95.00;;;;;;5033857;28;19963;-63
2022/10/20 07:05:52;;;;;;;;;;;16.80;95.00;;;;;;5033945;28;19909;-63
2022/10/20 07:08:18;;;;;;;;;;;16.80;95.00;;;;;;5031690;28;20302;-64
2022/10/20 07:10:44;;;;;;;;;;;16.80;95.00;;;;;;5031869;28;19970;-63
2022/10/20 07:13:09;;;;;;;;;;;16.90;95.00;;;;;;5033022;28;19966;-63
2022/10/20 07:15:35;;;;;;;;;;;16.90;95.10;;;;;;5031405;28;19912;-63
2022/10/20 07:18:01;;;;;;;;;;;17.00;95.00;;;;;;5029468;28;19999;-63
2022/10/20 07:20:26;;;;;;;;;;;17.00;94.90;;;;;;5030015;28;20011;-64
2022/10/20 07:22:52;;;;;;;;;;;17.10;94.70;;;;;;5029958;28;19913;-63
2022/10/20 07:25:20;;;;;;;;;;;17.20;94.60;;;;;;5032158;28;19970;-63
2022/10/20 07:27:46;;;;;;;;;;;17.30;94.30;;;;;;5029734;28;19909;-63
2022/10/20 07:30:12;;;;;;;;;;;17.30;94.20;;;;;;5031061;28;19908;-63
2022/10/20 07:32:38;;;;;;;;;;;17.40;93.90;;;;;;5030159;28;20153;-64
2022/10/20 07:35:04;;;;;;;;;;;17.50;93.70;;;;;;5031076;28;20000;-63
2022/10/20 07:37:30;;;;;;;;;;;17.70;93.50;;;;;;5030109;28;20201;-64
2022/10/20 07:39:55;;;;;;;;;;;17.80;93.10;;;;;;5031038;28;20398;-63
2022/10/20 07:42:21;;;;;;;;;;;17.90;92.80;;;;;;5029881;28;19913;-64
2022/10/20 07:44:47;;;;;;;;;;;18.00;92.50;;;;;;5028275;28;19916;-63
2022/10/20 07:47:12;;;;;;;;;;;18.20;92.10;;;;;;5028132;28;20146;-63
2022/10/20 07:49:38;;;;;;;;;;;18.40;91.60;;;;;;5028820;28;19916;-64
2022/10/20 07:52:04;;;;;;;;;;;18.60;90.90;;;;;;5027916;28;19909;-64
2022/10/20 07:54:29;;;;;;;;;;;18.70;90.30;;;;;;5028192;28;20156;-64
2022/10/20 07:56:55;;;;;;;;;;;19.00;89.00;;;;;;5029828;28;19924;-64
2022/10/20 07:59:21;;;;;;;;;;;19.20;87.40;;;;;;5031653;28;19913;-64
2022/10/20 08:01:46;;;;;;;;;;;19.20;86.80;;;;;;5029933;28;20014;-64
2022/10/20 08:04:12;;;;;;;;;;;19.50;85.70;;;;;;5029504;28;20186;-64
2022/10/20 08:06:38;;;;;;;;;;;19.70;83.60;;;;;;5029419;28;19909;-64
2022/10/20 08:09:03;;;;;;;;;;;20.40;80.00;;;;;;5030816;28;20166;-64
2022/10/20 08:11:29;;;;;;;;;;;21.20;74.40;;;;;;5031005;28;20224;-64
2022/10/20 08:13:54;;;;;;;;;;;21.80;70.10;;;;;;5030733;28;20203;-64
2022/10/20 08:16:20;;;;;;;;;;;22.00;66.70;;;;;;5030584;28;20058;-64
2022/10/20 08:18:46;;;;;;;;;;;21.70;66.70;;;;;;5030109;28;19995;-64
2022/10/20 08:21:13;;;;;;;;;;;21.40;68.00;;;;;;5028250;28;19952;-64
2022/10/20 08:23:39;;;;;;;;;;;21.20;69.20;;;;;;5027611;28;19913;-64
2022/10/20 08:26:06;;;;;;;;;;;21.00;70.50;;;;;;5026060;28;19952;-64
2022/10/20 08:28:32;;;;;;;;;;;20.60;72.10;;;;;;5026274;28;19909;-64
2022/10/20 08:31:00;;;;;;;;;;;20.30;74.50;;;;;;5023967;28;19916;-64
2022/10/20 08:33:25;;;;;;;;;;;19.90;77.70;;;;;;5023271;28;19921;-64
2022/10/20 08:35:51;;;;;;;;;;;19.60;79.40;;;;;;5026003;28;20283;-64
2022/10/20 08:38:17;;;;;;;;;;;19.40;81.50;;;;;;5026193;28;20407;-64
2022/10/20 08:40:43;;;;;;;;;;;19.20;83.20;;;;;;5024760;28;19912;-64
2022/10/20 08:43:15;;;;;;;;;;;19.10;84.60;;;;;;5027444;28;19912;-63
2022/10/20 08:45:40;;;;;;;;;;;19.10;85.60;;;;;;5024792;28;20038;-64
2022/10/20 08:48:13;;;;;;;;;;;19.10;86.10;;;;;;5026695;28;19971;-64
2022/10/20 08:50:42;;;;;;;;;;;19.10;86.10;;;;;;5027396;28;19916;-64
2022/10/20 08:53:09;;;;;;;;;;;19.10;86.40;;;;;;5027968;28;19999;-64
2022/10/20 08:55:35;;;;;;;;;;;19.20;86.30;;;;;;5039436;28;19920;-64
2022/10/20 08:58:00;;;;;;;;;;;19.20;86.20;;;;;;5035268;28;20145;-64
2022/10/20 09:00:26;;;;;;;;;;;19.30;85.90;;;;;;5027616;28;20321;-64
2022/10/20 09:02:53;;;;;;;;;;;19.30;85.80;;;;;;5027142;28;19986;-64
2022/10/20 09:05:21;;;;;;;;;;;19.30;85.90;;;;;;5026261;28;19990;-63
2022/10/20 09:07:48;;;;;;;;;;;19.40;85.40;;;;;;5028820;28;19909;-63
2022/10/20 09:10:24;;;;;;;;;;;19.50;84.70;;;;;;5028839;28;19908;-64
2022/10/20 09:12:50;;;;;;;;;;;19.70;83.70;;;;;;5028626;28;20057;-64
2022/10/20 09:15:16;;;;;;;;;;;20.00;81.70;;;;;;5029686;28;19909;-64
2022/10/20 09:17:45;;;;;;;;;;;19.80;82.10;;;;;;5028908;28;19908;-64
2022/10/20 09:20:21;;;;;;;;;;;19.60;83.50;;;;;;5027395;28;19913;-64
2022/10/20 09:22:47;;;;;;;;;;;19.40;84.80;;;;;;5030364;28;20336;-64
2022/10/20 09:25:15;;;;;;;;;;;19.20;86.10;;;;;;5030436;28;19916;-64
2022/10/20 09:27:41;;;;;;;;;;;19.10;87.30;;;;;;5028820;28;19920;-64
2022/10/20 09:30:15;;;;;;;;;;;18.90;88.50;;;;;;5048281;28;19909;-64
2022/10/20 09:32:41;;;;;;;;;;;18.80;89.50;;;;;;5045184;28;19916;-64
2022/10/20 09:35:24;;;;;;;;;;;18.70;90.10;;;;;;5028907;28;20206;-64
2022/10/20 09:37:56;;;;;;;;;;;18.70;90.50;;;;;;5030958;28;20081;-64
2022/10/20 09:40:22;;;;;;;;;;;18.70;90.90;;;;;;5029774;28;19944;-64
2022/10/20 09:42:50;;;;;;;;;;;18.60;91.10;;;;;;5030057;28;20274;-64
2022/10/20 09:45:20;;;;;;;;;;;18.50;91.40;;;;;;5030535;28;19909;-64
2022/10/20 09:47:49;;;;;;;;;;;18.50;91.60;;;;;;5033097;28;20271;-64
2022/10/20 09:50:41;;;;;;;;;;;18.40;91.90;;;;;;5035254;28;19951;-64
2022/10/20 09:53:18;;;;;;;;;;;18.40;92.20;;;;;;5032027;28;19951;-64
2022/10/20 09:55:48;;;;;;;;;;;18.30;92.50;;;;;;5034157;28;20338;-64
2022/10/20 09:58:33;;;;;;;;;;;18.20;92.70;;;;;;5033662;28;20031;-64
2022/10/20 10:01:05;;;;;;;;;;;18.20;92.90;;;;;;5036337;28;20038;-64
2022/10/20 10:03:51;;;;;;;;;;;18.20;93.10;;;;;;5038316;28;19923;-62
2022/10/20 10:06:20;;;;;;;;;;;18.20;93.20;;;;;;5034229;28;19909;-63
2022/10/20 10:08:46;;;;;;;;;;;18.20;93.30;;;;;;5035872;28;19917;-63
2022/10/20 10:11:16;;;;;;;;;;;18.10;93.40;;;;;;5033992;28;19916;-63
2022/10/20 10:13:42;;;;;;;;;;;18.10;93.40;;;;;;5036460;28;19908;-63
2022/10/20 10:16:09;;;;;;;;;;;18.10;93.70;;;;;;5037694;28;19916;-63
2022/10/20 10:18:36;;;;;;;;;;;18.10;93.80;;;;;;5034731;28;20219;-63
2022/10/20 10:21:09;;;;;;;;;;;18.10;93.90;;;;;;5036205;28;19909;-63
2022/10/20 10:23:35;;;;;;;;;;;18.00;94.00;;;;;;5032543;28;20168;-63
2022/10/20 10:26:02;;;;;;;;;;;18.00;94.20;;;;;;5036013;28;20100;-63
2022/10/20 10:28:38;;;;;;;;;;;17.90;94.40;;;;;;5035973;28;20213;-63
2022/10/20 10:31:05;;;;;;;;;;;17.90;94.50;;;;;;5035514;28;19969;-63
2022/10/20 10:33:32;;;;;;;;;;;17.90;94.70;;;;;;5032883;28;20348;-62
2022/10/20 10:36:00;;;;;;;;;;;17.90;94.80;;;;;;5033437;28;19966;-63
2022/10/20 10:38:26;;;;;;;;;;;17.90;95.00;;;;;;5032289;28;20540;-63
2022/10/20 10:41:16;;;;;;;;;;;17.80;95.00;;;;;;5032584;28;19909;-63
2022/10/20 10:43:45;;;;;;;;;;;17.80;95.10;;;;;;5032211;28;19970;-62
2022/10/20 10:46:13;;;;;;;;;;;17.80;95.20;;;;;;5032391;28;19978;-63
2022/10/20 10:48:39;;;;;;;;;;;17.80;95.30;;;;;;5031586;28;20157;-62
2022/10/20 10:51:20;;;;;;;;;;;17.80;95.40;;;;;;5031256;28;19939;-63
2022/10/20 10:53:52;;;;;;;;;;;17.80;95.40;;;;;;5030807;28;19925;-62
2022/10/20 10:56:18;;;;;;;;;;;17.90;95.40;;;;;;5030802;28;19909;-63
2022/10/20 10:58:57;;;;;;;;;;;17.90;95.40;;;;;;5027313;28;20258;-63
2022/10/20 11:01:42;;;;;;;;;;;17.90;95.40;;;;;;5027582;28;19935;-63
2022/10/20 11:04:26;;;;;;;;;;;17.90;95.50;;;;;;5027019;28;19912;-63
2022/10/20 11:07:09;;;;;;;;;;;17.90;95.50;;;;;;5026213;28;19916;-63
2022/10/20 11:09:48;;;;;;;;;;;17.90;95.50;;;;;;5026849;28;19952;-63
2022/10/20 11:12:26;;;;;;;;;;;17.90;95.50;;;;;;5026474;28;20268;-62
2022/10/20 11:15:01;;;;;;;;;;;17.90;95.60;;;;;;5026662;28;20067;-63
2022/10/20 11:17:36;;;;;;;;;;;17.90;95.70;;;;;;5026378;28;20004;-63
2022/10/20 11:20:11;;;;;;;;;;;17.90;95.80;;;;;;5028574;28;20103;-63
2022/10/20 11:22:53;;;;;;;;;;;17.90;95.90;;;;;;5026729;28;20091;-63
2022/10/20 11:25:39;;;;;;;;;;;17.90;96.10;;;;;;5028515;28;20328;-63
2022/10/20 11:28:10;;;;;;;;;;;17.80;96.20;;;;;;5028039;28;19916;-62
2022/10/20 11:30:36;;;;;;;;;;;17.80;96.40;;;;;;5026222;28;20322;-62
2022/10/20 11:33:17;;;;;;;;;;;17.80;96.60;;;;;;5025784;28;20290;-63
2022/10/20 11:35:49;;;;;;;;;;;17.80;96.80;;;;;;5026023;28;20062;-63
2022/10/20 11:38:18;;;;;;;;;;;17.70;96.90;;;;;;5027139;28;20065;-62
2022/10/20 11:40:48;;;;;;;;;;;17.70;96.90;;;;;;5028308;28;20211;-63
2022/10/20 11:43:17;;;;;;;;;;;17.70;97.00;;;;;;5028780;28;19978;-63
2022/10/20 11:45:53;;;;;;;;;;;17.70;97.10;;;;;;5027254;28;19909;-63
2022/10/20 11:48:21;;;;;;;;;;;17.80;97.30;;;;;;5028915;28;20323;-63
2022/10/20 11:51:08;;;;;;;;;;;17.70;97.40;;;;;;5028036;28;19921;-63
2022/10/20 11:53:34;;;;;;;;;;;17.70;97.50;;;;;;5007454;28;19917;-63
2022/10/20 11:55:59;;;;;;;;;;;17.80;97.60;;;;;;5028461;28;19990;-62
2022/10/20 11:58:49;;;;;;;;;;;17.80;97.60;;;;;;5049546;28;20080;-62
2022/10/20 12:01:14;;;;;;;;;;;17.80;97.60;;;;;;5029166;28;19916;-62
2022/10/20 12:04:00;;;;;;;;;;;17.80;97.60;;;;;;5028949;28;19913;-63
2022/10/20 12:06:38;;;;;;;;;;;17.80;97.60;;;;;;5027622;28;19919;-63
2022/10/20 12:09:13;;;;;;;;;;;17.80;97.70;;;;;;5026661;28;19916;-62
2022/10/20 12:11:48;;;;;;;;;;;17.70;97.60;;;;;;5030779;28;20278;-62
2022/10/20 12:14:14;;;;;;;;;;;17.70;97.60;;;;;;5029052;28;19909;-63
2022/10/20 12:17:01;;;;;;;;;;;17.70;97.70;;;;;;5026515;28;19919;-63
2022/10/20 12:19:28;;;;;;;;;;;17.70;97.80;;;;;;5026399;28;19967;-62
2022/10/20 12:22:23;;;;;;;;;;;17.70;97.90;;;;;;5027777;28;19916;-63
2022/10/20 12:24:49;;;;;;;;;;;17.70;97.90;;;;;;5019099;28;19978;-62
2022/10/20 12:27:16;;;;;;;;;;;17.70;97.90;;;;;;5023964;28;19909;-63
2022/10/20 12:29:43;;;;;;;;;;;17.70;98.00;;;;;;5027209;28;20303;-63
2022/10/20 12:32:22;;;;;;;;;;;17.70;98.10;;;;;;5028320;28;19921;-63
2022/10/20 12:34:55;;;;;;;;;;;17.70;98.20;;;;;;5030172;28;20202;-63
2022/10/20 12:37:24;;;;;;;;;;;17.60;98.20;;;;;;5030537;28;20015;-63
2022/10/20 12:40:10;;;;;;;;;;;17.70;98.30;;;;;;5029749;28;19909;-63
2022/10/20 12:42:36;;;;;;;;;;;17.60;98.30;;;;;;5027494;28;20009;-63
2022/10/20 12:45:06;;;;;;;;;;;17.60;98.40;;;;;;5028252;28;20007;-63
2022/10/20 12:47:33;;;;;;;;;;;17.60;98.40;;;;;;5028284;28;20314;-63
2022/10/20 12:49:58;;;;;;;;;;;17.60;98.50;;;;;;5029027;28;20199;-63
2022/10/20 12:52:29;;;;;;;;;;;17.60;98.60;;;;;;5028563;28;20262;-63
2022/10/20 12:55:16;;;;;;;;;;;17.60;98.70;;;;;;5028091;28;19999;-64
2022/10/20 12:57:43;;;;;;;;;;;17.60;98.70;;;;;;5028200;28;19909;-63
2022/10/20 13:00:18;;;;;;;;;;;17.60;98.80;;;;;;5028258;28;20120;-63
2022/10/20 13:02:51;;;;;;;;;;;17.60;98.80;;;;;;5026241;28;19920;-63
2022/10/20 13:05:17;;;;;;;;;;;17.60;98.90;;;;;;5045208;28;19920;-63
2022/10/20 13:07:48;;;;;;;;;;;17.50;98.90;;;;;;5027977;28;19909;-63
2022/10/20 13:10:29;;;;;;;;;;;17.50;98.90;;;;;;5029300;28;19909;-63
2022/10/20 13:13:01;;;;;;;;;;;17.50;99.00;;;;;;5029079;28;19970;-63
2022/10/20 13:15:27;;;;;;;;;;;17.60;99.00;;;;;;5030978;28;20101;-62
2022/10/20 13:17:56;;;;;;;;;;;17.60;99.10;;;;;;5031675;28;19909;-63
2022/10/20 13:20:40;;;;;;;;;;;17.60;99.10;;;;;;5030375;28;19908;-62
2022/10/20 13:23:10;;;;;;;;;;;17.60;99.10;;;;;;5029289;28;19912;-63
2022/10/20 13:25:39;;;;;;;;;;;17.60;99.10;;;;;;5027654;28;20137;-63
2022/10/20 13:28:17;;;;;;;;;;;17.60;99.10;;;;;;5046653;28;19909;-62
2022/10/20 13:31:02;;;;;;;;;;;17.70;99.20;;;;;;5025967;28;20086;-63
2022/10/20 13:33:37;;;;;;;;;;;17.70;99.20;;;;;;5026086;28;20266;-63
2022/10/20 13:36:35;;;;;;;;;;;17.70;99.20;;;;;;5028463;28;20329;-63
2022/10/20 13:39:03;;;;;;;;;;;17.70;99.20;;;;;;5007265;28;19909;-63
2022/10/20 13:41:35;;;;;;;;;;;17.70;99.20;;;;;;5029329;28;19909;-63
2022/10/20 13:44:19;;;;;;;;;;;17.70;99.20;;;;;;5046120;28;19938;-63
2022/10/20 13:47:05;;;;;;;;;;;17.70;99.20;;;;;;5026181;28;20097;-63
2022/10/20 13:49:46;;;;;;;;;;;17.70;99.20;;;;;;5027615;28;19916;-62
2022/10/20 13:52:14;;;;;;;;;;;17.70;99.20;;;;;;5028325;28;20131;-63
2022/10/20 13:54:43;;;;;;;;;;;17.80;99.20;;;;;;5027576;28;20038;-62
2022/10/20 13:57:21;;;;;;;;;;;17.80;99.30;;;;;;5028849;28;20008;-63
2022/10/20 14:00:01;;;;;;;;;;;17.80;99.30;;;;;;5027265;28;20340;-63
2022/10/20 14:02:28;;;;;;;;;;;17.80;99.30;;;;;;5044792;28;20058;-63
2022/10/20 14:05:06;;;;;;;;;;;17.80;99.40;;;;;;5027625;28;19913;-63
2022/10/20 14:07:38;;;;;;;;;;;17.80;99.40;;;;;;5025980;28;19916;-63
2022/10/20 14:10:04;;;;;;;;;;;17.80;99.40;;;;;;5028231;28;20100;-62
2022/10/20 14:12:30;;;;;;;;;;;17.80;99.50;;;;;;5028268;28;20004;-63
2022/10/20 14:14:56;;;;;;;;;;;17.80;99.60;;;;;;5026354;28;20012;-63
2022/10/20 14:17:23;;;;;;;;;;;17.80;99.50;;;;;;5026929;28;20063;-63
2022/10/20 14:19:49;;;;;;;;;;;17.80;99.70;;;;;;5026823;28;19915;-63
2022/10/20 14:22:15;;;;;;;;;;;17.80;99.70;;;;;;5027032;28;19909;-63
2022/10/20 14:24:42;;;;;;;;;;;17.80;99.80;;;;;;5029686;28;19909;-64
2022/10/20 14:27:12;;;;;;;;;;;17.90;99.90;;;;;;5027454;28;19913;-63